East View, New York
Current Conditions -  °F | °C
As of 12:56 AM on Saturday 25 Oct 2014 (Local Time) from KHPN Reporting Station
Clear Clear  
Wind Chill: 40°   Ceiling: Unl
Heat Index: 45°   Visibility: 10mi
Dew Point: 43°   Wind: 9mph
Humidity: 93%   Direction: 330°NNW
Pressure: 29.82"   Gusts: NA
Location:  41.0861°N, 73.7807°W
Report Text: KHPN 250456Z 33008KT 10SM CLR 07/06 A2982 RMK AO2 SLP101 T00720061 401390061
Loading
Personal Weather Stations






























Interactive Weather Map
Tropical Storm Tracking
New forecast layout! Learn more

10-Day Weather Forecast

Advertisements
Track Severe Weather on mobile